Time,TemperatureF,DewpointF,PressureIn,WindDirection,WindDirectionDegrees,WindSpeedMPH,WindSpeedGustMPH,Humidity,HourlyPrecipIn,Conditions,Clouds,dailyrainin,SoftwareType,DateUTC
2013-02-14 00:07:00,40.6,34.0,29.86,WSW,247,1.1,-999.0,77,-99.99,,,0.00,Acu-Link.com,2013-02-14 05:07:00,
2013-02-14 00:22:00,40.6,34.0,29.86,NNE,22,2.2,-999.0,77,-99.99,,,0.00,Acu-Link.com,2013-02-14 05:22:00,
2013-02-14 00:38:00,40.6,34.0,29.86,NW,315,0.0,-999.0,77,-99.99,,,0.00,Acu-Link.com,2013-02-14 05:38:00,
2013-02-14 00:53:00,40.5,34.5,29.85,NW,315,0.0,-999.0,79,-99.99,,,0.00,Acu-Link.com,2013-02-14 05:53:00,
2013-02-14 01:08:00,40.5,34.2,29.86,NW,315,0.0,-999.0,78,-99.99,,,0.00,Acu-Link.com,2013-02-14 06:08:00,
2013-02-14 01:24:00,40.5,34.5,29.86,NW,315,1.7,-999.0,79,-99.99,,,0.00,Acu-Link.com,2013-02-14 06:24:00,
2013-02-14 01:39:00,40.5,34.5,29.86,NNW,337,1.1,-999.0,79,-99.99,,,0.00,Acu-Link.com,2013-02-14 06:39:00,
2013-02-14 01:54:00,40.5,34.2,29.86,WNW,292,1.7,-999.0,78,-99.99,,,0.00,Acu-Link.com,2013-02-14 06:54:00,
2013-02-14 02:09:00,40.5,33.9,29.86,WNW,292,1.7,-999.0,77,-99.99,,,0.00,Acu-Link.com,2013-02-14 07:09:00,
2013-02-14 02:25:00,40.5,33.5,29.86,NNE,22,1.7,-999.0,76,-99.99,,,0.00,Acu-Link.com,2013-02-14 07:25:00,
2013-02-14 02:40:00,40.5,33.5,29.87,WSW,247,0.0,-999.0,76,-99.99,,,0.00,Acu-Link.com,2013-02-14 07:40:00,
2013-02-14 02:55:00,40.5,33.9,29.86,SW,225,0.0,-999.0,77,-99.99,,,0.00,Acu-Link.com,2013-02-14 07:55:00,
2013-02-14 03:11:00,40.5,34.2,29.86,SW,225,0.0,-999.0,78,-99.99,,,0.00,Acu-Link.com,2013-02-14 08:11:00,
2013-02-14 03:26:00,40.1,33.2,29.86,WNW,292,0.0,-999.0,76,-99.99,,,0.00,Acu-Link.com,2013-02-14 08:26:00,
2013-02-14 03:41:00,40.3,34.3,29.86,WNW,292,0.0,-999.0,79,-99.99,,,0.00,Acu-Link.com,2013-02-14 08:41:00,
2013-02-14 03:57:00,40.1,33.2,29.86,NW,315,3.7,-999.0,76,-99.99,,,0.00,Acu-Link.com,2013-02-14 08:57:00,
2013-02-14 04:15:00,40.1,32.5,29.86,NNW,337,4.7,-999.0,74,-99.99,,,0.00,Acu-Link.com,2013-02-14 09:15:00,
2013-02-14 04:30:00,40.3,32.7,29.86,NW,315,0.0,-999.0,74,-99.99,,,0.00,Acu-Link.com,2013-02-14 09:30:00,
2013-02-14 04:45:00,40.1,32.2,29.86,NW,315,1.7,-999.0,73,-99.99,,,0.00,Acu-Link.com,2013-02-14 09:45:00,
2013-02-14 05:01:00,39.9,31.6,29.86,NNW,337,1.7,-999.0,72,-99.99,,,0.00,Acu-Link.com,2013-02-14 10:01:00,
2013-02-14 05:16:00,39.6,31.7,29.87,NW,315,0.0,-999.0,73,-99.99,,,0.00,Acu-Link.com,2013-02-14 10:16:00,
2013-02-14 05:31:00,39.6,32.0,29.87,West,270,0.0,-999.0,74,-99.99,,,0.00,Acu-Link.com,2013-02-14 10:31:00,
2013-02-14 05:46:00,39.4,31.8,29.87,WNW,292,0.0,-999.0,74,-99.99,,,0.00,Acu-Link.com,2013-02-14 10:46:00,
2013-02-14 06:02:00,39.0,31.8,29.87,SW,225,0.0,-999.0,75,-99.99,,,0.00,Acu-Link.com,2013-02-14 11:02:00,
2013-02-14 06:17:00,38.1,32.2,29.87,NNE,22,0.0,-999.0,79,-99.99,,,0.00,Acu-Link.com,2013-02-14 11:17:00,
2013-02-14 06:32:00,37.2,31.6,29.87,WNW,292,0.0,-999.0,80,-99.99,,,0.00,Acu-Link.com,2013-02-14 11:32:00,
2013-02-14 06:48:00,36.5,30.9,29.88,WSW,247,0.0,-999.0,80,-99.99,,,0.00,Acu-Link.com,2013-02-14 11:48:00,
2013-02-14 07:03:00,36.0,30.7,29.88,WNW,292,0.0,-999.0,81,-99.99,,,0.00,Acu-Link.com,2013-02-14 12:03:00,
2013-02-14 07:18:00,35.2,30.3,29.89,West,270,0.0,-999.0,82,-99.99,,,0.00,Acu-Link.com,2013-02-14 12:18:00,
2013-02-14 07:33:00,34.2,30.5,29.90,WNW,292,2.2,-999.0,86,-99.99,,,0.00,Acu-Link.com,2013-02-14 12:33:00,
2013-02-14 07:49:00,33.6,30.2,29.91,North,0,0.0,-999.0,87,-99.99,,,0.00,Acu-Link.com,2013-02-14 12:49:00,
2013-02-14 08:04:00,34.2,31.0,29.91,WNW,292,0.0,-999.0,88,-99.99,,,0.00,Acu-Link.com,2013-02-14 13:04:00,
2013-02-14 08:19:00,37.4,33.3,29.92,NW,315,0.0,-999.0,85,-99.99,,,0.00,Acu-Link.com,2013-02-14 13:19:00,
2013-02-14 08:35:00,40.6,34.0,29.93,South,180,1.1,-999.0,77,-99.99,,,0.00,Acu-Link.com,2013-02-14 13:35:00,
2013-02-14 08:50:00,41.5,34.2,29.93,WNW,292,0.0,-999.0,75,-99.99,,,0.00,Acu-Link.com,2013-02-14 13:50:00,
2013-02-14 09:05:00,43.0,34.3,29.94,SSW,202,0.0,-999.0,71,-99.99,,,0.00,Acu-Link.com,2013-02-14 14:05:00,
2013-02-14 09:21:00,44.8,34.1,29.93,North,0,1.7,-999.0,66,-99.99,,,0.00,Acu-Link.com,2013-02-14 14:21:00,
2013-02-14 09:36:00,44.8,33.4,29.93,NW,315,1.7,-999.0,64,-99.99,,,0.00,Acu-Link.com,2013-02-14 14:36:00,
2013-02-14 09:51:00,45.3,33.5,29.93,NW,315,1.7,-999.0,63,-99.99,,,0.00,Acu-Link.com,2013-02-14 14:51:00,
2013-02-14 10:06:00,45.7,34.2,29.92,East,90,2.2,-999.0,64,-99.99,,,0.00,Acu-Link.com,2013-02-14 15:06:00,
2013-02-14 10:22:00,46.9,35.4,29.92,ESE,112,4.2,-999.0,64,-99.99,,,0.00,Acu-Link.com,2013-02-14 15:22:00,
2013-02-14 10:37:00,47.7,36.5,29.91,SE,135,4.2,-999.0,65,-99.99,,,0.00,Acu-Link.com,2013-02-14 15:37:00,
2013-02-14 11:08:00,48.2,36.2,29.90,SSE,157,2.7,-999.0,63,-99.99,,,0.00,Acu-Link.com,2013-02-14 16:08:00,
2013-02-14 11:23:00,49.3,36.8,29.90,SSW,202,2.7,-999.0,62,-99.99,,,0.00,Acu-Link.com,2013-02-14 16:23:00,
2013-02-14 11:38:00,49.6,37.1,29.92,SSW,202,3.7,-999.0,62,-99.99,,,0.00,Acu-Link.com,2013-02-14 16:38:00,
2013-02-14 11:54:00,50.0,37.1,29.92,SSE,157,3.2,-999.0,61,-99.99,,,0.00,Acu-Link.com,2013-02-14 16:54:00,
2013-02-14 12:09:00,50.2,37.3,29.92,SSE,157,5.8,-999.0,61,-99.99,,,0.00,Acu-Link.com,2013-02-14 17:09:00,
2013-02-14 12:24:00,51.3,38.7,29.91,South,180,4.2,-999.0,62,-99.99,,,0.00,Acu-Link.com,2013-02-14 17:24:00,
2013-02-14 12:39:00,51.8,38.4,29.91,ESE,112,2.7,-999.0,60,-99.99,,,0.00,Acu-Link.com,2013-02-14 17:39:00,
2013-02-14 12:55:00,52.7,39.2,29.90,ESE,112,2.7,-999.0,60,-99.99,,,0.00,Acu-Link.com,2013-02-14 17:55:00,
2013-02-14 13:10:00,52.7,37.9,29.89,WSW,247,3.2,-999.0,57,-99.99,,,0.00,Acu-Link.com,2013-02-14 18:10:00,
2013-02-14 13:25:00,53.1,38.7,29.88,South,180,2.7,-999.0,58,-99.99,,,0.00,Acu-Link.com,2013-02-14 18:25:00,
2013-02-14 13:41:00,53.2,38.8,29.87,SE,135,2.7,-999.0,58,-99.99,,,0.00,Acu-Link.com,2013-02-14 18:41:00,
2013-02-14 13:56:00,54.0,38.7,29.86,SSW,202,4.7,-999.0,56,-99.99,,,0.00,Acu-Link.com,2013-02-14 18:56:00,
2013-02-14 14:11:00,54.1,39.7,29.85,SE,135,2.7,-999.0,58,-99.99,,,0.00,Acu-Link.com,2013-02-14 19:11:00,
2013-02-14 14:27:00,54.5,39.6,29.85,ESE,112,4.7,-999.0,57,-99.99,,,0.00,Acu-Link.com,2013-02-14 19:27:00,
2013-02-14 14:42:00,55.4,39.5,29.86,South,180,3.7,-999.0,55,-99.99,,,0.00,Acu-Link.com,2013-02-14 19:42:00,
2013-02-14 14:57:00,55.8,38.4,29.85,South,180,4.7,-999.0,52,-99.99,,,0.00,Acu-Link.com,2013-02-14 19:57:00,
2013-02-14 15:12:00,56.7,38.8,29.84,SSW,202,3.7,-999.0,51,-99.99,,,0.00,Acu-Link.com,2013-02-14 20:12:00,
2013-02-14 15:27:00,56.7,38.3,29.84,SSE,157,3.2,-999.0,50,-99.99,,,0.00,Acu-Link.com,2013-02-14 20:27:00,
2013-02-14 15:43:00,56.8,37.8,29.83,South,180,6.8,-999.0,49,-99.99,,,0.00,Acu-Link.com,2013-02-14 20:43:00,
2013-02-14 15:58:00,57.0,37.5,29.84,South,180,1.7,-999.0,48,-99.99,,,0.00,Acu-Link.com,2013-02-14 20:58:00,
2013-02-14 16:13:00,57.7,38.7,29.84,SE,135,3.2,-999.0,49,-99.99,,,0.00,Acu-Link.com,2013-02-14 21:13:00,
2013-02-14 16:29:00,57.4,36.8,29.84,SW,225,2.7,-999.0,46,-99.99,,,0.00,Acu-Link.com,2013-02-14 21:29:00,
2013-02-14 16:44:00,57.6,37.5,29.84,SSW,202,3.7,-999.0,47,-99.99,,,0.00,Acu-Link.com,2013-02-14 21:44:00,
2013-02-14 16:59:00,57.6,37.5,29.84,SSE,157,4.7,-999.0,47,-99.99,,,0.00,Acu-Link.com,2013-02-14 21:59:00,
2013-02-14 17:15:00,57.9,35.0,29.84,SW,225,5.3,-999.0,42,-99.99,,,0.00,Acu-Link.com,2013-02-14 22:15:00,
2013-02-14 17:30:00,57.0,35.9,29.83,SSW,202,2.2,-999.0,45,-99.99,,,0.00,Acu-Link.com,2013-02-14 22:30:00,
2013-02-14 17:45:00,56.1,35.1,29.84,South,180,2.7,-999.0,45,-99.99,,,0.00,Acu-Link.com,2013-02-14 22:45:00,
2013-02-14 18:00:00,55.0,35.7,29.83,SW,225,1.7,-999.0,48,-99.99,,,0.00,Acu-Link.com,2013-02-14 23:00:00,
2013-02-14 18:16:00,54.0,35.8,29.84,SSW,202,1.1,-999.0,50,-99.99,,,0.00,Acu-Link.com,2013-02-14 23:16:00,
2013-02-14 18:31:00,52.5,35.4,29.85,NNW,337,3.2,-999.0,52,-99.99,,,0.00,Acu-Link.com,2013-02-14 23:31:00,
2013-02-14 18:46:00,51.3,35.2,29.85,SSW,202,0.0,-999.0,54,-99.99,,,0.00,Acu-Link.com,2013-02-14 23:46:00,
2013-02-14 19:01:00,50.2,35.1,29.86,SW,225,0.0,-999.0,56,-99.99,,,0.00,Acu-Link.com,2013-02-15 00:01:00,
2013-02-14 19:17:00,48.9,35.2,29.86,West,270,0.0,-999.0,59,-99.99,,,0.00,Acu-Link.com,2013-02-15 00:17:00,
2013-02-14 19:32:00,47.8,35.4,29.86,West,270,0.0,-999.0,62,-99.99,,,0.00,Acu-Link.com,2013-02-15 00:32:00,
2013-02-14 19:47:00,47.1,35.2,29.86,WSW,247,0.0,-999.0,63,-99.99,,,0.00,Acu-Link.com,2013-02-15 00:47:00,
2013-02-14 20:03:00,46.4,35.3,29.87,West,270,0.0,-999.0,65,-99.99,,,0.00,Acu-Link.com,2013-02-15 01:03:00,
2013-02-14 20:18:00,45.9,35.9,29.87,WNW,292,0.0,-999.0,68,-99.99,,,0.00,Acu-Link.com,2013-02-15 01:18:00,
2013-02-14 20:33:00,44.6,35.4,29.87,West,270,1.1,-999.0,70,-99.99,,,0.00,Acu-Link.com,2013-02-15 01:33:00,
2013-02-14 20:49:00,43.7,35.3,29.87,WNW,292,0.0,-999.0,72,-99.99,,,0.00,Acu-Link.com,2013-02-15 01:49:00,
2013-02-14 21:04:00,42.6,34.6,29.88,WNW,292,0.0,-999.0,73,-99.99,,,0.00,Acu-Link.com,2013-02-15 02:04:00,
2013-02-14 21:19:00,42.1,34.4,29.88,West,270,0.0,-999.0,74,-99.99,,,0.00,Acu-Link.com,2013-02-15 02:19:00,
2013-02-14 21:34:00,41.5,36.1,29.88,West,270,0.0,-999.0,81,-99.99,,,0.00,Acu-Link.com,2013-02-15 02:34:00,
2013-02-14 21:49:00,41.4,35.4,29.87,West,270,0.0,-999.0,79,-99.99,,,0.00,Acu-Link.com,2013-02-15 02:49:00,
2013-02-14 22:05:00,41.4,35.4,29.87,WSW,247,1.7,-999.0,79,-99.99,,,0.00,Acu-Link.com,2013-02-15 03:05:00,
2013-02-14 22:20:00,40.8,35.1,29.87,West,270,0.0,-999.0,80,-99.99,,,0.00,Acu-Link.com,2013-02-15 03:20:00,
2013-02-14 22:35:00,40.5,35.4,29.87,West,270,0.0,-999.0,82,-99.99,,,0.00,Acu-Link.com,2013-02-15 03:35:00,
2013-02-14 22:51:00,40.1,35.4,29.87,WSW,247,0.0,-999.0,83,-99.99,,,0.00,Acu-Link.com,2013-02-15 03:51:00,
2013-02-14 23:06:00,39.7,35.0,29.87,West,270,0.0,-999.0,83,-99.99,,,0.00,Acu-Link.com,2013-02-15 04:06:00,
2013-02-14 23:22:00,39.2,34.8,29.87,ESE,112,0.0,-999.0,84,-99.99,,,0.00,Acu-Link.com,2013-02-15 04:22:00,
2013-02-14 23:37:00,38.1,33.7,29.87,West,270,0.0,-999.0,84,-99.99,,,0.00,Acu-Link.com,2013-02-15 04:37:00,
2013-02-14 23:52:00,37.4,34.2,29.88,West,270,0.0,-999.0,88,-99.99,,,0.00,Acu-Link.com,2013-02-15 04:52:00,